Terminal Aerodrome Forecast
Issued by NWS Wakefield, VA

Home | Current Version | Previous Version | Text Only | Print | Product List | Glossary On
Versions: 1 2 3 4 5 6 7 8 9 10 11 12 13 14 15 16 17 18 19 20 21 22 23 24 25 26 27 28 29
671
FTUS41 KAKQ 240704 AAA
TAFSBY
TAF AMD
KSBY 240704Z 2407/2506 23006KT 2SM BR BKN002
      TEMPO 2407/2410 1SM BR BKN001
     FM241000 21004KT 1SM BR BKN001
     FM241330 00000KT 4SM BR OVC002
     FM242000 VRB03KT 4SM BR OVC003
     FM250000 07006KT 2SM -SHRA BR OVC003=

USA.gov is the U.S. government's official web portal to all federal, state and local government web resources and services.